Time;durP1;ratioP1;P1;durP2;ratioP2;P2;SDS_P1;SDS_P2;PMS_P1;PMS_P2;Temp;Humidity;BMP_temperature;BMP_pressure;BME280_temperature;BME280_humidity;BME280_pressure;Samples;Min_cycle;Max_cycle;Signal;HPM_P1;HPM_P2
2021/12/02 00:01:14;;;;;;;2.30;1.20;;;;;;;4.92;100.00;97370.97;5092346;28;20055;-83
2021/12/02 00:03:42;;;;;;;2.53;0.90;;;;;;;4.95;100.00;97384.03;5092500;28;20048;-84
2021/12/02 00:06:11;;;;;;;1.27;1.10;;;;;;;4.81;100.00;97380.41;5087905;28;20060;-83
2021/12/02 00:08:38;;;;;;;5.43;1.60;;;;;;;4.68;100.00;97372.19;5092806;28;20052;-84
2021/12/02 00:11:06;;;;;;;2.38;1.00;;;;;;;4.68;100.00;97378.41;5092101;28;20066;-83
2021/12/02 00:13:41;;;;;;;7.70;1.02;;;;;;;4.75;100.00;97375.78;5092079;28;20062;-84
2021/12/02 00:16:18;;;;;;;1.25;0.80;;;;;;;4.60;100.00;97357.00;5092445;28;20060;-83
2021/12/02 00:21:32;;;;;;;2.42;1.00;;;;;;;4.58;100.00;97365.25;5090183;28;20050;-83
2021/12/02 00:24:04;;;;;;;1.35;0.90;;;;;;;4.44;100.00;97349.97;5092174;28;20132;-83
2021/12/02 00:26:32;;;;;;;1.77;0.90;;;;;;;4.46;100.00;97372.16;5092240;28;20130;-83
2021/12/02 00:29:00;;;;;;;5.70;1.67;;;;;;;4.50;100.00;97378.84;5092386;28;20048;-83
2021/12/02 00:31:31;;;;;;;1.15;0.88;;;;;;;4.42;100.00;97384.31;5092085;28;20058;-83
2021/12/02 00:34:02;;;;;;;2.00;1.08;;;;;;;4.42;100.00;97393.22;5092268;28;20048;-83
2021/12/02 00:36:31;;;;;;;1.63;0.90;;;;;;;4.31;100.00;97393.72;5075109;28;20495;-83
2021/12/02 00:39:00;;;;;;;4.65;0.90;;;;;;;4.43;100.00;97408.34;5082571;28;20098;-83
2021/12/02 00:41:28;;;;;;;5.82;1.20;;;;;;;4.36;100.00;97410.13;5091420;28;20503;-83
2021/12/02 00:43:58;;;;;;;3.65;1.38;;;;;;;4.21;100.00;97394.00;5091969;28;20056;-83
2021/12/02 00:46:27;;;;;;;;;;;;;;;4.21;100.00;97409.31;5092530;28;20044;-83
2021/12/02 00:48:54;;;;;;;2.10;0.70;;;;;;;4.25;100.00;97405.25;5091862;28;19927;-83
2021/12/02 00:51:27;;;;;;;4.28;1.02;;;;;;;4.27;100.00;97413.13;5090442;28;20048;-82
2021/12/02 00:53:54;;;;;;;3.67;1.40;;;;;;;4.08;100.00;97410.00;5090097;28;20063;-83
2021/12/02 00:56:24;;;;;;;1.63;1.13;;;;;;;3.98;100.00;97387.94;5091914;28;20052;-83
2021/12/02 00:58:53;;;;;;;1.95;1.35;;;;;;;4.02;100.00;97395.44;5095258;28;20071;-83
2021/12/02 01:01:23;;;;;;;1.63;0.95;;;;;;;4.09;100.00;97414.34;5095322;28;20074;-83
2021/12/02 01:03:54;;;;;;;4.00;1.48;;;;;;;4.04;100.00;97409.53;5095863;28;20161;-83
2021/12/02 01:06:23;;;;;;;1.55;1.08;;;;;;;3.97;100.00;97391.63;5095939;28;20052;-83
2021/12/02 01:08:50;;;;;;;2.78;1.33;;;;;;;3.94;100.00;97400.06;5095953;28;20162;-83
2021/12/02 01:11:18;;;;;;;2.22;0.80;;;;;;;4.12;100.00;97413.97;5093693;28;20131;-84
2021/12/02 01:13:45;;;;;;;3.78;1.20;;;;;;;3.98;100.00;97390.63;5095778;28;20399;-83
2021/12/02 01:16:13;;;;;;;4.70;1.30;;;;;;;4.03;100.00;97388.19;5095508;28;20047;-83
2021/12/02 01:18:40;;;;;;;1.30;1.10;;;;;;;4.01;100.00;97391.06;5095679;28;20248;-83
2021/12/02 01:21:08;;;;;;;1.33;0.90;;;;;;;4.01;100.00;97388.38;5094969;28;20044;-83
2021/12/02 01:23:36;;;;;;;2.63;1.02;;;;;;;4.15;100.00;97399.31;5095338;28;20055;-83
2021/12/02 01:26:06;;;;;;;5.30;1.50;;;;;;;4.02;100.00;97390.06;5095374;28;20062;-83
2021/12/02 01:28:33;;;;;;;6.60;1.10;;;;;;;4.14;100.00;97422.69;5093888;28;20075;-83
2021/12/02 01:31:00;;;;;;;3.03;1.00;;;;;;;3.98;100.00;97393.31;5094528;28;20544;-83
2021/12/02 01:33:28;;;;;;;3.35;1.15;;;;;;;4.08;100.00;97401.94;5095168;28;20052;-83
2021/12/02 01:35:58;;;;;;;2.00;0.90;;;;;;;4.14;100.00;97427.22;5095157;28;20503;-83
2021/12/02 01:38:26;;;;;;;4.47;0.98;;;;;;;4.12;100.00;97403.22;5095670;28;20136;-83
2021/12/02 01:40:55;;;;;;;1.42;1.10;;;;;;;4.15;100.00;97407.38;5094190;28;20053;-83
2021/12/02 01:43:37;;;;;;;5.40;2.28;;;;;;;4.22;100.00;97421.75;5095335;28;20144;-83
2021/12/02 01:46:04;;;;;;;1.60;1.10;;;;;;;4.22;100.00;97424.44;5091837;28;20059;-83
2021/12/02 01:48:32;;;;;;;2.17;1.20;;;;;;;4.09;100.00;97411.66;5087324;28;20095;-83
2021/12/02 01:51:05;;;;;;;4.35;1.38;;;;;;;4.04;100.00;97414.91;5094279;28;20051;-83
2021/12/02 01:53:35;;;;;;;2.30;1.10;;;;;;;4.08;100.00;97420.75;5094678;28;20044;-83
2021/12/02 01:56:10;;;;;;;3.58;1.10;;;;;;;3.99;100.00;97405.72;5094921;28;20036;-83
2021/12/02 01:58:43;;;;;;;3.45;1.00;;;;;;;4.10;100.00;97424.09;5095159;28;20047;-83
2021/12/02 02:01:16;;;;;;;2.85;1.05;;;;;;;4.04;100.00;97420.28;5090970;28;20052;-83
2021/12/02 02:03:44;;;;;;;3.55;1.38;;;;;;;4.10;100.00;97429.47;5094628;28;20551;-83
2021/12/02 02:06:13;;;;;;;1.45;1.20;;;;;;;4.12;100.00;97427.41;5094592;28;20056;-83
2021/12/02 02:08:45;;;;;;;6.13;1.13;;;;;;;4.15;100.00;97429.72;5093993;28;20062;-82
2021/12/02 02:11:14;;;;;;;1.83;1.20;;;;;;;4.06;100.00;97414.72;5094324;28;20044;-83
2021/12/02 02:13:43;;;;;;;1.83;1.05;;;;;;;4.04;100.00;97409.53;5094395;28;20487;-83
2021/12/02 02:16:11;;;;;;;9.02;1.02;;;;;;;4.23;100.00;97431.47;5092803;28;20059;-83
2021/12/02 02:18:41;;;;;;;5.65;1.20;;;;;;;4.12;100.00;97416.66;5094025;28;20043;-84
2021/12/02 02:21:13;;;;;;;;;;;;;;;4.30;100.00;97432.41;5094409;28;20040;-84
2021/12/02 02:23:45;;;;;;;4.25;1.38;;;;;;;4.28;100.00;97422.88;5094209;28;19955;-83
2021/12/02 02:26:12;;;;;;;2.38;0.70;;;;;;;4.35;100.00;97430.00;5094169;28;20083;-84
2021/12/02 02:28:39;;;;;;;5.18;1.00;;;;;;;4.20;100.00;97410.34;5093831;28;20048;-83
2021/12/02 02:31:06;;;;;;;1.48;0.70;;;;;;;4.32;100.00;97432.22;5093834;28;20052;-83
2021/12/02 02:33:38;;;;;;;1.92;0.82;;;;;;;4.29;100.00;97416.44;5092741;28;20043;-84
2021/12/02 02:36:06;;;;;;;1.80;0.93;;;;;;;4.30;100.00;97407.38;5094049;28;20043;-84
2021/12/02 02:38:36;;;;;;;1.83;0.70;;;;;;;4.25;100.00;97408.75;5093667;28;20480;-84
2021/12/02 02:41:06;;;;;;;3.97;0.80;;;;;;;4.32;100.00;97418.75;5093393;28;20066;-84
2021/12/02 02:43:34;;;;;;;2.25;0.82;;;;;;;4.24;100.00;97403.56;5094051;28;20052;-84
2021/12/02 02:46:01;;;;;;;4.63;1.23;;;;;;;4.24;100.00;97401.69;5094054;28;20525;-84
2021/12/02 02:48:30;;;;;;;1.65;0.80;;;;;;;4.33;100.00;97412.38;5092765;28;20051;-84
2021/12/02 02:50:57;;;;;;;4.63;1.25;;;;;;;4.30;100.00;97402.00;5092824;28;20411;-84
2021/12/02 02:53:26;;;;;;;1.73;0.63;;;;;;;4.27;100.00;97388.91;5093553;28;20127;-84
2021/12/02 02:56:08;;;;;;;3.13;0.82;;;;;;;4.33;100.00;97407.00;5093215;28;20055;-83
2021/12/02 02:58:49;;;;;;;4.47;0.65;;;;;;;4.45;100.00;97420.78;5093583;28;20044;-84
2021/12/02 03:01:31;;;;;;;3.05;0.70;;;;;;;4.42;100.00;97398.59;5093962;28;20055;-83
2021/12/02 03:04:05;;;;;;;3.53;0.77;;;;;;;4.43;100.00;97400.28;5093783;28;20051;-83
2021/12/02 03:06:35;;;;;;;0.85;0.70;;;;;;;4.45;100.00;97404.66;5090850;28;20085;-84
2021/12/02 03:09:06;;;;;;;3.55;1.13;;;;;;;4.38;100.00;97424.25;5091849;28;20044;-84
2021/12/02 03:11:44;;;;;;;1.95;0.57;;;;;;;4.43;100.00;97421.00;5073311;28;20127;-84
2021/12/02 03:14:16;;;;;;;3.55;0.90;;;;;;;4.37;100.00;97405.59;5084837;28;20080;-84
2021/12/02 03:16:50;;;;;;;0.93;0.60;;;;;;;4.35;100.00;97404.94;5093076;28;20048;-83
2021/12/02 03:19:30;;;;;;;0.98;0.70;;;;;;;4.32;100.00;97394.56;5093163;28;20081;-84
2021/12/02 03:22:01;;;;;;;2.92;0.75;;;;;;;4.36;100.00;97406.63;5092103;28;20177;-84
2021/12/02 03:24:29;;;;;;;1.45;0.88;;;;;;;4.34;100.00;97406.81;5091342;28;20082;-83
2021/12/02 03:26:58;;;;;;;1.70;0.82;;;;;;;4.25;100.00;97394.47;5092765;28;20113;-84
2021/12/02 03:29:25;;;;;;;1.25;0.55;;;;;;;4.32;100.00;97402.63;5093003;28;20509;-84
2021/12/02 03:31:52;;;;;;;2.15;0.75;;;;;;;4.30;100.00;97386.66;5092856;28;20040;-84
2021/12/02 03:34:19;;;;;;;2.03;1.02;;;;;;;4.24;100.00;97377.50;5092965;28;20130;-84
2021/12/02 03:36:48;;;;;;;2.22;0.68;;;;;;;4.30;100.00;97400.13;5092830;28;20068;-85
2021/12/02 03:39:17;;;;;;;3.38;0.80;;;;;;;4.28;100.00;97410.25;5092599;28;20052;-83
2021/12/02 03:41:45;;;;;;;2.13;0.70;;;;;;;4.24;100.00;97407.06;5086179;28;20044;-84
2021/12/02 03:44:14;;;;;;;4.85;0.90;;;;;;;4.27;100.00;97416.63;5092831;28;20206;-84
2021/12/02 03:46:42;;;;;;;2.58;0.90;;;;;;;4.27;100.00;97408.56;5092963;28;20052;-83
2021/12/02 03:49:24;;;;;;;2.00;1.23;;;;;;;4.21;100.00;97401.25;5092610;28;20059;-84
2021/12/02 03:51:53;;;;;;;1.17;0.82;;;;;;;4.09;100.00;97408.97;5091961;28;20079;-83
2021/12/02 03:54:22;;;;;;;0.70;0.70;;;;;;;4.08;100.00;97407.31;5093002;28;20121;-84
2021/12/02 03:56:49;;;;;;;2.55;0.80;;;;;;;3.96;100.00;97390.81;5104378;28;20063;-83
2021/12/02 03:59:21;;;;;;;3.05;0.70;;;;;;;3.97;100.00;97405.06;5110197;28;20082;-83
2021/12/02 04:01:48;;;;;;;2.33;0.70;;;;;;;3.98;100.00;97396.81;5111589;28;20066;-83
2021/12/02 04:04:15;;;;;;;3.03;0.88;;;;;;;3.96;100.00;97406.94;5111831;28;20420;-83
2021/12/02 04:06:42;;;;;;;0.40;0.40;;;;;;;4.03;100.00;97409.72;5107064;28;20051;-83
2021/12/02 04:09:11;;;;;;;1.77;0.63;;;;;;;3.96;100.00;97409.63;5095411;28;20130;-83
2021/12/02 04:11:42;;;;;;;1.75;0.70;;;;;;;3.94;100.00;97397.38;5093364;28;20044;-83
2021/12/02 04:14:15;;;;;;;0.68;0.68;;;;;;;3.93;100.00;97377.75;5085239;28;20080;-83
2021/12/02 04:16:52;;;;;;;2.08;0.70;;;;;;;3.97;100.00;97403.22;5092921;28;20139;-84
2021/12/02 04:19:19;;;;;;;3.13;1.20;;;;;;;3.83;100.00;97394.13;5092534;28;20135;-84
2021/12/02 04:21:46;;;;;;;3.88;1.42;;;;;;;3.98;100.00;97404.88;5091947;28;20048;-84
2021/12/02 04:24:13;;;;;;;1.58;0.90;;;;;;;3.98;100.00;97377.19;5081128;28;20048;-83
2021/12/02 04:26:42;;;;;;;2.97;0.77;;;;;;;3.99;100.00;97378.81;5090797;28;20044;-83
2021/12/02 04:29:10;;;;;;;1.83;0.80;;;;;;;3.90;100.00;97370.88;5090705;28;20040;-84
2021/12/02 04:31:36;;;;;;;0.75;0.65;;;;;;;3.82;100.00;97370.13;5091069;28;20403;-83
2021/12/02 04:34:05;;;;;;;2.45;1.02;;;;;;;3.86;100.00;97376.81;5096404;28;20075;-83
2021/12/02 04:36:32;;;;;;;1.70;0.88;;;;;;;3.89;100.00;97376.44;5096426;28;20058;-83
2021/12/02 04:38:59;;;;;;;2.72;1.00;;;;;;;3.78;100.00;97377.75;5096494;28;20040;-83
2021/12/02 04:41:26;;;;;;;1.65;1.00;;;;;;;3.90;100.00;97388.88;5095827;28;20080;-83
2021/12/02 04:43:53;;;;;;;2.85;1.17;;;;;;;3.80;100.00;97378.38;5096392;28;20400;-83
2021/12/02 04:46:20;;;;;;;4.22;1.13;;;;;;;3.83;100.00;97396.00;5096645;28;20044;-83
2021/12/02 04:48:47;;;;;;;2.63;0.57;;;;;;;3.77;100.00;97378.75;5094943;28;20058;-83
2021/12/02 04:51:18;;;;;;;1.23;0.93;;;;;;;3.63;100.00;97377.75;5093102;28;20318;-84
2021/12/02 04:53:45;;;;;;;1.55;0.60;;;;;;;3.72;100.00;97387.38;5095942;28;20044;-83
2021/12/02 04:56:12;;;;;;;2.13;0.85;;;;;;;3.71;100.00;97391.06;5095786;28;20054;-83
2021/12/02 04:58:39;;;;;;;2.63;0.70;;;;;;;3.57;100.00;97388.38;5096289;28;20040;-83
2021/12/02 05:01:06;;;;;;;1.08;0.80;;;;;;;3.49;100.00;97376.72;5095402;28;20040;-84
2021/12/02 05:03:33;;;;;;;1.00;0.88;;;;;;;3.67;100.00;97399.69;5096298;28;20376;-86
2021/12/02 05:06:00;;;;;;;2.00;0.80;;;;;;;3.53;100.00;97379.84;5094000;28;20244;-84
2021/12/02 05:08:29;;;;;;;0.95;0.50;;;;;;;3.60;100.00;97394.22;5095588;28;20086;-83
2021/12/02 05:10:56;;;;;;;1.77;1.00;;;;;;;3.50;100.00;97394.47;5095627;28;20587;-85
2021/12/02 05:13:26;;;;;;;1.77;0.80;;;;;;;3.53;100.00;97401.34;5096040;28;20138;-88
2021/12/02 05:15:53;;;;;;;1.98;0.75;;;;;;;3.56;100.00;97395.59;5095534;28;20131;-84
2021/12/02 05:18:20;;;;;;;2.05;1.00;;;;;;;3.58;100.00;97390.88;5096954;28;20135;-85
2021/12/02 05:20:48;;;;;;;1.73;0.98;;;;;;;3.53;100.00;97383.38;5096742;28;20097;-85
2021/12/02 05:23:16;;;;;;;1.45;0.80;;;;;;;3.49;100.00;97381.22;5093064;28;20513;-85
2021/12/02 05:25:45;;;;;;;4.78;0.98;;;;;;;3.58;100.00;97392.72;5095883;28;20047;-85
2021/12/02 05:28:17;;;;;;;2.70;1.20;;;;;;;3.51;100.00;97404.22;5095753;28;20048;-85
2021/12/02 05:30:45;;;;;;;0.70;0.70;;;;;;;3.49;100.00;97392.84;5095544;28;20321;-85
2021/12/02 05:33:12;;;;;;;3.97;1.08;;;;;;;3.55;100.00;97404.69;5095974;28;20127;-85
2021/12/02 05:35:39;;;;;;;5.72;1.13;;;;;;;3.58;100.00;97392.72;5095731;28;20048;-85
2021/12/02 05:38:06;;;;;;;3.70;1.00;;;;;;;3.50;100.00;97391.78;5095862;28;20055;-85
2021/12/02 05:40:33;;;;;;;3.58;0.88;;;;;;;3.53;100.00;97391.44;5093433;28;20074;-85
2021/12/02 05:43:02;;;;;;;1.58;1.00;;;;;;;3.38;100.00;97379.00;5094491;28;20139;-85
2021/12/02 05:45:30;;;;;;;2.20;0.88;;;;;;;3.41;100.00;97373.28;5095219;28;20084;-85
2021/12/02 05:47:57;;;;;;;3.40;1.10;;;;;;;3.44;100.00;97373.72;5095507;28;20072;-85
2021/12/02 05:50:25;;;;;;;2.33;0.85;;;;;;;3.39;100.00;97372.59;5095037;28;20040;-85
2021/12/02 05:52:52;;;;;;;1.27;0.80;;;;;;;3.50;100.00;97383.72;5095725;28;20043;-85
2021/12/02 05:55:19;;;;;;;3.78;1.17;;;;;;;3.45;100.00;97375.41;5086560;28;20055;-85
2021/12/02 05:57:46;;;;;;;1.75;0.93;;;;;;;3.51;100.00;97371.16;5092549;28;20055;-85
2021/12/02 06:00:16;;;;;;;0.63;0.63;;;;;;;3.70;100.00;97381.38;5094927;28;20505;-85
2021/12/02 06:02:45;;;;;;;2.50;0.80;;;;;;;3.53;100.00;97369.09;5094685;28;20469;-85
2021/12/02 06:05:20;;;;;;;2.87;0.77;;;;;;;3.56;100.00;97390.22;5094020;28;20047;-85
2021/12/02 06:07:50;;;;;;;0.95;0.80;;;;;;;3.51;100.00;97376.53;5092144;28;20052;-85
2021/12/02 06:10:17;;;;;;;2.40;0.90;;;;;;;3.45;100.00;97383.47;5094398;28;20051;-84
2021/12/02 06:12:44;;;;;;;2.63;0.70;;;;;;;3.44;100.00;97373.72;5094689;28;20297;-84
2021/12/02 06:15:12;;;;;;;2.25;0.70;;;;;;;3.72;100.00;97394.63;5094148;28;20048;-85
2021/12/02 06:17:43;;;;;;;8.63;1.25;;;;;;;3.55;100.00;97372.44;5095763;28;20040;-89
2021/12/02 06:20:13;;;;;;;1.20;0.80;;;;;;;3.60;100.00;97371.88;5095162;28;20461;-88
2021/12/02 06:22:41;;;;;;;1.15;0.80;;;;;;;3.54;100.00;97368.94;5094520;28;20044;-89
2021/12/02 06:28:07;;;;;;;3.53;1.23;;;;;;;3.53;100.00;97364.56;5094288;28;20406;-84
2021/12/02 06:30:34;;;;;;;1.42;0.80;;;;;;;3.64;100.00;97392.00;5093187;28;20147;-85
2021/12/02 06:33:03;;;;;;;3.13;0.80;;;;;;;3.61;100.00;97385.13;5094420;28;20072;-84
2021/12/02 06:35:30;;;;;;;3.78;1.13;;;;;;;3.56;100.00;97370.59;5076189;28;20053;-85
2021/12/02 06:37:57;;;;;;;4.22;0.80;;;;;;;3.53;100.00;97371.78;5094132;28;20506;-85
2021/12/02 06:40:24;;;;;;;3.00;1.02;;;;;;;3.56;100.00;97378.66;5091379;28;20062;-85
2021/12/02 06:42:51;;;;;;;2.85;1.00;;;;;;;3.60;100.00;97375.41;5082587;28;20047;-85
2021/12/02 06:45:19;;;;;;;1.65;1.13;;;;;;;3.68;100.00;97398.69;5094225;28;20056;-84
2021/12/02 06:47:46;;;;;;;2.25;1.13;;;;;;;3.68;100.00;97391.44;5093852;28;20048;-85
2021/12/02 06:50:18;;;;;;;0.90;0.90;;;;;;;3.61;100.00;97385.13;5093628;28;20967;-85
2021/12/02 06:52:45;;;;;;;3.42;1.23;;;;;;;3.58;100.00;97371.25;5093571;28;20044;-84
2021/12/02 06:55:26;;;;;;;1.95;0.85;;;;;;;3.64;100.00;97378.56;5092798;28;20075;-84
2021/12/02 06:57:53;;;;;;;1.63;0.98;;;;;;;3.81;100.00;97380.06;5090785;28;20077;-85
2021/12/02 07:00:22;;;;;;;2.17;0.85;;;;;;;3.84;100.00;97384.22;5090294;28;20142;-84
2021/12/02 07:02:52;;;;;;;8.88;1.42;;;;;;;3.80;100.00;97389.13;5087222;28;20066;-85
2021/12/02 07:05:20;;;;;;;1.70;0.80;;;;;;;3.70;100.00;97397.50;5093225;28;20048;-84
2021/12/02 07:07:48;;;;;;;3.88;1.40;;;;;;;3.70;100.00;97400.16;5093362;28;20131;-85
2021/12/02 07:10:17;;;;;;;6.65;1.40;;;;;;;3.56;100.00;97382.16;5093580;28;20063;-84
2021/12/02 07:12:46;;;;;;;2.95;1.33;;;;;;;3.66;100.00;97400.72;5093697;28;20055;-85
2021/12/02 07:15:17;;;;;;;1.20;1.10;;;;;;;3.64;100.00;97387.44;5092869;28;20139;-84
2021/12/02 07:17:45;;;;;;;1.45;1.35;;;;;;;3.72;100.00;97403.50;5093864;28;20090;-85
2021/12/02 07:20:12;;;;;;;0.80;0.80;;;;;;;3.72;100.00;97410.75;5093893;28;20052;-85
2021/12/02 07:22:41;;;;;;;4.60;1.08;;;;;;;3.74;100.00;97419.44;5093395;28;20048;-85
2021/12/02 07:25:09;;;;;;;1.95;1.15;;;;;;;3.56;100.00;97392.91;5093329;28;20063;-84
2021/12/02 07:27:36;;;;;;;1.92;0.90;;;;;;;3.68;100.00;97406.75;5093474;28;20044;-84
2021/12/02 07:30:04;;;;;;;2.38;0.88;;;;;;;3.59;100.00;97403.31;5088909;28;20056;-84
2021/12/02 07:32:36;;;;;;;3.83;1.08;;;;;;;3.64;100.00;97387.44;5090370;28;20048;-84
2021/12/02 07:35:08;;;;;;;0.88;0.80;;;;;;;3.73;100.00;97417.75;5089075;28;20480;-84
2021/12/02 07:37:43;;;;;;;2.55;1.15;;;;;;;3.65;100.00;97388.31;5094305;28;20048;-85
2021/12/02 07:40:12;;;;;;;2.40;1.10;;;;;;;3.66;100.00;97389.97;5092357;28;20362;-85
2021/12/02 07:42:39;;;;;;;2.17;1.00;;;;;;;3.67;100.00;97397.00;5093078;28;20048;-85
2021/12/02 07:45:08;;;;;;;3.92;1.08;;;;;;;3.76;100.00;97401.25;5092146;28;20501;-84
2021/12/02 07:47:38;;;;;;;1.85;0.80;;;;;;;3.72;100.00;97397.31;5090296;28;20044;-85
2021/12/02 07:50:05;;;;;;;;;;;;;;;3.81;100.00;97411.47;5093715;28;20051;-85
2021/12/02 07:52:34;;;;;;;1.27;0.88;;;;;;;3.76;100.00;97411.19;5092996;28;19920;-85
2021/12/02 07:55:07;;;;;;;2.08;0.60;;;;;;;3.79;100.00;97408.13;5093034;28;20055;-84
2021/12/02 07:57:35;;;;;;;2.15;1.13;;;;;;;3.81;100.00;97412.31;5093110;28;20058;-85
2021/12/02 08:00:02;;;;;;;0.70;0.70;;;;;;;3.83;100.00;97404.88;5092433;28;20048;-85
2021/12/02 08:02:33;;;;;;;1.30;0.60;;;;;;;3.87;100.00;97405.38;5080983;28;20403;-85
2021/12/02 08:05:00;;;;;;;1.65;0.75;;;;;;;3.86;100.00;97415.28;5092972;28;20139;-85
2021/12/02 08:07:27;;;;;;;1.23;0.90;;;;;;;3.80;100.00;97410.63;5092993;28;20105;-85
2021/12/02 08:09:54;;;;;;;1.10;0.63;;;;;;;3.87;100.00;97416.13;5092664;28;20059;-85
2021/12/02 08:12:22;;;;;;;0.93;0.70;;;;;;;3.72;100.00;97400.81;5092621;28;20048;-85
2021/12/02 08:14:50;;;;;;;1.33;0.73;;;;;;;3.71;100.00;97415.25;5092814;28;20399;-85
2021/12/02 08:17:19;;;;;;;1.17;1.05;;;;;;;3.72;100.00;97406.19;5091777;28;20051;-85
2021/12/02 08:19:45;;;;;;;4.35;0.98;;;;;;;3.71;100.00;97420.63;5091473;28;20483;-84
2021/12/02 08:22:12;;;;;;;1.02;0.65;;;;;;;3.78;100.00;97428.81;5092116;28;20040;-84
2021/12/02 08:24:39;;;;;;;2.15;0.90;;;;;;;3.67;100.00;97422.03;5092583;28;20056;-84
2021/12/02 08:27:09;;;;;;;1.48;0.80;;;;;;;3.64;100.00;97408.94;5092621;28;20074;-84
2021/12/02 08:29:38;;;;;;;1.27;0.90;;;;;;;3.76;100.00;97435.38;5092630;28;20048;-84
2021/12/02 08:32:06;;;;;;;0.90;0.80;;;;;;;3.75;100.00;97418.44;5091223;28;20484;-83
2021/12/02 08:34:32;;;;;;;3.47;1.83;;;;;;;3.66;100.00;97406.09;5080579;28;20044;-84
2021/12/02 08:36:59;;;;;;;5.63;1.60;;;;;;;3.78;100.00;97441.41;5092311;28;20044;-84
2021/12/02 08:39:28;;;;;;;1.45;0.82;;;;;;;3.77;100.00;97429.81;5092390;28;20498;-84
2021/12/02 08:41:55;;;;;;;2.60;1.50;;;;;;;3.79;100.00;97427.78;5091813;28;20093;-84
2021/12/02 08:44:23;;;;;;;7.15;2.30;;;;;;;3.81;100.00;97430.28;5092460;28;20047;-84
2021/12/02 08:46:52;;;;;;;2.45;0.90;;;;;;;3.71;100.00;97419.81;5092273;28;20408;-84
2021/12/02 08:49:22;;;;;;;2.58;1.00;;;;;;;3.68;100.00;97420.19;5092265;28;20044;-84
2021/12/02 08:51:49;;;;;;;2.55;1.25;;;;;;;3.72;100.00;97416.94;5090634;28;20474;-84
2021/12/02 08:54:16;;;;;;;5.88;1.00;;;;;;;3.75;100.00;97429.19;5091919;28;20052;-84
2021/12/02 08:56:43;;;;;;;2.35;1.33;;;;;;;3.80;100.00;97440.19;5092715;28;20577;-83
2021/12/02 08:59:14;;;;;;;1.95;1.33;;;;;;;3.76;100.00;97448.81;5092250;28;20052;-84
2021/12/02 09:01:41;;;;;;;1.02;0.80;;;;;;;3.64;100.00;97419.69;5092083;28;20052;-84
2021/12/02 09:04:09;;;;;;;3.33;1.45;;;;;;;3.68;100.00;97428.25;5092500;28;20063;-84
2021/12/02 09:06:36;;;;;;;4.82;1.13;;;;;;;3.59;100.00;97410.53;5090899;28;20068;-84
2021/12/02 09:09:04;;;;;;;4.22;1.55;;;;;;;3.69;100.00;97427.22;5092117;28;20044;-84
2021/12/02 09:11:33;;;;;;;2.10;1.27;;;;;;;3.67;100.00;97419.34;5091946;28;20055;-84
2021/12/02 09:14:02;;;;;;;2.45;1.38;;;;;;;3.71;100.00;97422.50;5092077;28;20590;-84
2021/12/02 09:16:31;;;;;;;5.25;1.58;;;;;;;3.69;100.00;97429.91;5093478;28;20047;-84
2021/12/02 09:18:59;;;;;;;2.87;1.57;;;;;;;3.62;100.00;97423.59;5097895;28;20644;-84
2021/12/02 09:21:28;;;;;;;2.47;1.30;;;;;;;3.63;100.00;97422.56;5092279;28;20072;-85
2021/12/02 09:23:56;;;;;;;1.77;1.33;;;;;;;3.72;100.00;97440.31;5095405;28;20048;-85
2021/12/02 09:26:23;;;;;;;1.77;1.27;;;;;;;3.70;100.00;97448.56;5095988;28;20109;-84
2021/12/02 09:28:54;;;;;;;4.25;1.80;;;;;;;3.60;100.00;97431.00;5095782;28;20051;-85
2021/12/02 09:31:21;;;;;;;3.10;1.80;;;;;;;3.68;100.00;97431.75;5096050;28;20047;-84
2021/12/02 09:33:48;;;;;;;7.93;1.70;;;;;;;3.74;100.00;97440.94;5095614;28;20048;-84
2021/12/02 09:36:16;;;;;;;9.70;1.80;;;;;;;3.76;100.00;97448.81;5089670;28;20062;-84
2021/12/02 09:38:44;;;;;;;3.13;1.60;;;;;;;3.79;100.00;97459.19;5088273;28;20483;-84
2021/12/02 09:41:12;;;;;;;5.88;2.85;;;;;;;3.67;100.00;97459.66;5095219;28;20392;-84
2021/12/02 09:43:39;;;;;;;2.33;1.10;;;;;;;3.70;100.00;97490.69;5095024;28;20048;-83
2021/12/02 09:46:07;;;;;;;0.60;0.60;;;;;;;3.10;100.00;97487.84;5095131;28;20461;-80
2021/12/02 09:48:35;;;;;;;0.98;0.80;;;;;;;2.78;100.00;97483.50;5094901;28;20043;-81
2021/12/02 09:51:07;;;;;;;0.70;0.70;;;;;;;2.63;100.00;97491.47;5094380;28;20552;-81
2021/12/02 09:53:38;;;;;;;1.35;0.63;;;;;;;2.56;100.00;97495.84;5093305;28;20043;-81
2021/12/02 09:56:18;;;;;;;0.70;0.70;;;;;;;2.39;100.00;97482.50;5095254;28;20493;-81
2021/12/02 09:58:46;;;;;;;0.95;0.80;;;;;;;2.36;100.00;97492.75;5094686;28;20086;-81
2021/12/02 10:01:14;;;;;;;0.95;0.80;;;;;;;2.35;100.00;97489.25;5094669;28;20064;-82
2021/12/02 10:03:43;;;;;;;0.73;0.73;;;;;;;2.29;100.00;97489.94;5094484;28;20040;-81
2021/12/02 10:06:14;;;;;;;3.13;1.10;;;;;;;2.23;100.00;97493.28;5094859;28;20055;-81
2021/12/02 10:08:51;;;;;;;1.33;1.05;;;;;;;2.32;100.00;97508.38;5088283;28;20037;-81
2021/12/02 10:11:29;;;;;;;0.63;0.60;;;;;;;2.17;100.00;97499.34;5092591;28;20058;-81
2021/12/02 10:14:10;;;;;;;2.28;0.70;;;;;;;2.21;100.00;97500.69;5093915;28;20487;-81
2021/12/02 10:16:41;;;;;;;0.77;0.70;;;;;;;2.16;100.00;97505.75;5094594;28;20484;-81
2021/12/02 10:19:10;;;;;;;1.02;0.80;;;;;;;2.10;100.00;97500.03;5094458;28;20074;-81
2021/12/02 10:21:40;;;;;;;0.60;0.60;;;;;;;2.05;100.00;97496.22;5094014;28;20058;-81
2021/12/02 10:24:09;;;;;;;1.13;0.90;;;;;;;2.17;100.00;97499.34;5093954;28;20127;-81
2021/12/02 10:26:40;;;;;;;1.45;0.70;;;;;;;2.15;100.00;97491.47;5081023;28;20766;-81
2021/12/02 10:29:22;;;;;;;2.25;0.82;;;;;;;2.28;100.00;97513.22;5090276;28;20036;-80
2021/12/02 10:32:05;;;;;;;1.25;1.10;;;;;;;2.38;100.00;97518.41;5094005;28;20055;-82
2021/12/02 10:34:32;;;;;;;1.98;0.98;;;;;;;2.43;100.00;97497.25;5094019;28;20090;-82
2021/12/02 10:37:10;;;;;;;2.25;1.17;;;;;;;2.61;100.00;97498.84;5090238;28;20059;-81
2021/12/02 10:39:37;;;;;;;2.45;1.08;;;;;;;2.55;100.00;97494.19;5083627;28;20118;-81
2021/12/02 10:42:07;;;;;;;2.55;1.38;;;;;;;2.55;100.00;97495.03;5093656;28;20112;-81
2021/12/02 10:44:35;;;;;;;6.07;1.90;;;;;;;2.65;100.00;97484.09;5093885;28;20044;-81
2021/12/02 10:47:05;;;;;;;4.63;1.80;;;;;;;2.79;100.00;97507.47;5093810;28;20079;-81
2021/12/02 10:49:34;;;;;;;2.50;1.42;;;;;;;2.64;100.00;97488.59;5094022;28;20052;-81
2021/12/02 10:52:06;;;;;;;4.93;1.57;;;;;;;2.64;100.00;97483.22;5093651;28;20113;-81
2021/12/02 10:54:35;;;;;;;4.30;1.83;;;;;;;2.72;100.00;97500.31;5092183;28;20488;-82
2021/12/02 10:57:09;;;;;;;5.73;1.80;;;;;;;2.61;100.00;97475.53;5089990;28;20048;-81
2021/12/02 10:59:41;;;;;;;1.88;1.30;;;;;;;2.73;100.00;97480.53;5073274;28;20302;-81
2021/12/02 11:02:16;;;;;;;1.23;1.10;;;;;;;2.75;100.00;97476.63;5073448;28;20057;-82
2021/12/02 11:04:44;;;;;;;1.25;1.15;;;;;;;2.78;100.00;97481.63;5072961;28;20099;-81
2021/12/02 11:07:14;;;;;;;3.53;0.80;;;;;;;2.83;100.00;97490.03;5073239;28;20044;-81
2021/12/02 11:09:42;;;;;;;1.52;0.90;;;;;;;2.96;100.00;97491.28;5073175;28;20048;-81
2021/12/02 11:12:23;;;;;;;1.48;1.10;;;;;;;2.88;100.00;97475.25;5072823;28;20048;-81
2021/12/02 11:15:10;;;;;;;;;;;;;;;3.05;100.00;97494.75;5086872;28;20048;-81
2021/12/02 11:17:43;;;;;;;2.90;1.13;;;;;;;3.13;100.00;97495.53;5067901;28;19921;-81
2021/12/02 11:20:13;;;;;;;3.20;1.38;;;;;;;3.16;100.00;97484.44;5072750;28;20044;-81
2021/12/02 11:22:39;;;;;;;;;;;;;;;3.27;100.00;97493.09;5073355;28;20415;-81
2021/12/02 11:25:10;;;;;;;3.75;1.95;;;;;;;3.27;100.00;97491.22;5072693;28;19921;-81
2021/12/02 11:27:41;;;;;;;5.63;1.85;;;;;;;3.19;100.00;97489.44;5072876;28;20059;-81
2021/12/02 11:30:20;;;;;;;3.22;1.55;;;;;;;3.11;100.00;97489.50;5080189;28;20059;-81
2021/12/02 11:32:50;;;;;;;3.38;2.20;;;;;;;3.08;100.00;97480.97;5092801;28;20044;-81
2021/12/02 11:35:27;;;;;;;2.35;1.67;;;;;;;3.20;100.00;97466.09;5093150;28;20052;-81
2021/12/02 11:37:59;;;;;;;2.75;1.40;;;;;;;3.41;100.00;97470.81;5093429;28;20060;-81
2021/12/02 11:40:28;;;;;;;1.90;1.60;;;;;;;3.37;100.00;97469.47;5080750;28;20059;-81
2021/12/02 11:42:58;;;;;;;3.05;1.73;;;;;;;3.41;100.00;97467.28;5079084;28;20047;-81
2021/12/02 11:45:28;;;;;;;4.10;1.88;;;;;;;3.44;100.00;97466.94;5092641;28;20040;-81
2021/12/02 11:47:56;;;;;;;3.10;1.70;;;;;;;3.44;100.00;97469.63;5092831;28;20056;-81
2021/12/02 11:50:24;;;;;;;8.80;2.10;;;;;;;3.57;100.00;97477.03;5092631;28;20051;-81